sensor_id;sensor_type;location;lat;lon;timestamp;P1;durP1;ratioP1;P2;durP2;ratioP2
46765;SDS011;32527;51.986;5.842;2024-02-21T00:00:55;13.80;;;6.10;;
46765;SDS011;32527;51.986;5.842;2024-02-21T00:03:21;10.27;;;5.82;;
46765;SDS011;32527;51.986;5.842;2024-02-21T00:05:47;15.38;;;6.57;;
46765;SDS011;32527;51.986;5.842;2024-02-21T00:08:13;12.25;;;5.95;;
46765;SDS011;32527;51.986;5.842;2024-02-21T00:10:39;12.13;;;7.50;;
46765;SDS011;32527;51.986;5.842;2024-02-21T00:13:05;15.93;;;7.22;;
46765;SDS011;32527;51.986;5.842;2024-02-21T00:15:31;14.35;;;6.40;;
46765;SDS011;32527;51.986;5.842;2024-02-21T00:17:57;9.55;;;6.07;;
46765;SDS011;32527;51.986;5.842;2024-02-21T00:20:23;13.68;;;6.25;;
46765;SDS011;32527;51.986;5.842;2024-02-21T00:22:51;19.83;;;6.30;;
46765;SDS011;32527;51.986;5.842;2024-02-21T00:25:17;12.95;;;6.47;;
46765;SDS011;32527;51.986;5.842;2024-02-21T00:27:43;15.23;;;6.50;;
46765;SDS011;32527;51.986;5.842;2024-02-21T00:30:10;12.10;;;6.30;;
46765;SDS011;32527;51.986;5.842;2024-02-21T00:32:36;11.30;;;6.40;;
46765;SDS011;32527;51.986;5.842;2024-02-21T00:35:02;16.88;;;6.68;;
46765;SDS011;32527;51.986;5.842;2024-02-21T00:37:28;12.85;;;6.35;;
46765;SDS011;32527;51.986;5.842;2024-02-21T00:39:54;14.05;;;6.28;;
46765;SDS011;32527;51.986;5.842;2024-02-21T00:42:20;8.35;;;5.47;;
46765;SDS011;32527;51.986;5.842;2024-02-21T00:44:46;15.35;;;6.93;;
46765;SDS011;32527;51.986;5.842;2024-02-21T00:47:12;15.73;;;5.82;;
46765;SDS011;32527;51.986;5.842;2024-02-21T00:49:39;14.77;;;6.65;;
46765;SDS011;32527;51.986;5.842;2024-02-21T00:52:05;10.98;;;5.53;;
46765;SDS011;32527;51.986;5.842;2024-02-21T00:54:31;10.45;;;6.13;;
46765;SDS011;32527;51.986;5.842;2024-02-21T00:56:57;8.65;;;5.72;;
46765;SDS011;32527;51.986;5.842;2024-02-21T00:59:23;23.25;;;6.95;;
46765;SDS011;32527;51.986;5.842;2024-02-21T01:01:49;18.55;;;6.65;;
46765;SDS011;32527;51.986;5.842;2024-02-21T01:04:15;20.05;;;5.78;;
46765;SDS011;32527;51.986;5.842;2024-02-21T01:06:41;22.73;;;7.57;;
46765;SDS011;32527;51.986;5.842;2024-02-21T01:09:09;14.75;;;5.78;;
46765;SDS011;32527;51.986;5.842;2024-02-21T01:11:35;14.40;;;5.97;;
46765;SDS011;32527;51.986;5.842;2024-02-21T01:14:01;10.90;;;5.38;;
46765;SDS011;32527;51.986;5.842;2024-02-21T01:16:27;16.05;;;5.65;;
46765;SDS011;32527;51.986;5.842;2024-02-21T01:18:54;18.67;;;7.07;;
46765;SDS011;32527;51.986;5.842;2024-02-21T01:21:20;13.65;;;5.82;;
46765;SDS011;32527;51.986;5.842;2024-02-21T01:23:46;11.10;;;6.13;;
46765;SDS011;32527;51.986;5.842;2024-02-21T01:26:12;13.35;;;8.25;;
46765;SDS011;32527;51.986;5.842;2024-02-21T01:28:40;19.65;;;7.55;;
46765;SDS011;32527;51.986;5.842;2024-02-21T01:31:06;13.75;;;7.15;;
46765;SDS011;32527;51.986;5.842;2024-02-21T01:33:33;10.85;;;5.20;;
46765;SDS011;32527;51.986;5.842;2024-02-21T01:36:03;9.65;;;5.60;;
46765;SDS011;32527;51.986;5.842;2024-02-21T01:38:31;15.98;;;6.68;;
46765;SDS011;32527;51.986;5.842;2024-02-21T01:40:58;14.13;;;5.82;;
46765;SDS011;32527;51.986;5.842;2024-02-21T01:43:24;23.27;;;6.75;;
46765;SDS011;32527;51.986;5.842;2024-02-21T01:45:50;8.70;;;5.95;;
46765;SDS011;32527;51.986;5.842;2024-02-21T01:48:21;14.60;;;6.13;;
46765;SDS011;32527;51.986;5.842;2024-02-21T01:50:48;9.68;;;5.30;;
46765;SDS011;32527;51.986;5.842;2024-02-21T01:53:19;11.82;;;5.57;;
46765;SDS011;32527;51.986;5.842;2024-02-21T01:55:52;12.20;;;5.68;;
46765;SDS011;32527;51.986;5.842;2024-02-21T01:58:18;16.50;;;6.05;;
46765;SDS011;32527;51.986;5.842;2024-02-21T02:00:45;11.13;;;6.13;;
46765;SDS011;32527;51.986;5.842;2024-02-21T02:03:13;13.88;;;5.78;;
46765;SDS011;32527;51.986;5.842;2024-02-21T02:05:45;21.88;;;6.72;;
46765;SDS011;32527;51.986;5.842;2024-02-21T02:08:13;11.82;;;5.75;;
46765;SDS011;32527;51.986;5.842;2024-02-21T02:10:39;15.35;;;6.70;;
46765;SDS011;32527;51.986;5.842;2024-02-21T02:13:06;10.10;;;5.60;;
46765;SDS011;32527;51.986;5.842;2024-02-21T02:15:39;12.60;;;5.90;;
46765;SDS011;32527;51.986;5.842;2024-02-21T02:18:05;8.32;;;5.25;;
46765;SDS011;32527;51.986;5.842;2024-02-21T02:20:31;13.52;;;5.93;;
46765;SDS011;32527;51.986;5.842;2024-02-21T02:22:57;13.20;;;6.68;;
46765;SDS011;32527;51.986;5.842;2024-02-21T02:25:26;9.65;;;5.88;;
46765;SDS011;32527;51.986;5.842;2024-02-21T02:27:52;11.35;;;5.78;;
46765;SDS011;32527;51.986;5.842;2024-02-21T02:30:18;12.50;;;5.88;;
46765;SDS011;32527;51.986;5.842;2024-02-21T02:32:45;13.55;;;5.55;;
46765;SDS011;32527;51.986;5.842;2024-02-21T02:35:14;12.98;;;5.20;;
46765;SDS011;32527;51.986;5.842;2024-02-21T02:37:40;14.02;;;6.00;;
46765;SDS011;32527;51.986;5.842;2024-02-21T02:40:06;9.55;;;5.15;;
46765;SDS011;32527;51.986;5.842;2024-02-21T02:42:33;11.13;;;5.47;;
46765;SDS011;32527;51.986;5.842;2024-02-21T02:44:59;13.77;;;6.18;;
46765;SDS011;32527;51.986;5.842;2024-02-21T02:47:26;20.88;;;6.50;;
46765;SDS011;32527;51.986;5.842;2024-02-21T02:49:56;13.60;;;6.45;;
46765;SDS011;32527;51.986;5.842;2024-02-21T02:52:22;11.52;;;5.75;;
46765;SDS011;32527;51.986;5.842;2024-02-21T02:54:48;12.23;;;6.20;;
46765;SDS011;32527;51.986;5.842;2024-02-21T02:57:17;13.38;;;7.45;;
46765;SDS011;32527;51.986;5.842;2024-02-21T02:59:52;10.18;;;5.85;;
46765;SDS011;32527;51.986;5.842;2024-02-21T03:02:18;12.88;;;5.60;;
46765;SDS011;32527;51.986;5.842;2024-02-21T03:04:44;8.85;;;5.47;;
46765;SDS011;32527;51.986;5.842;2024-02-21T03:07:10;29.83;;;6.80;;
46765;SDS011;32527;51.986;5.842;2024-02-21T03:09:39;18.38;;;5.07;;
46765;SDS011;32527;51.986;5.842;2024-02-21T03:12:08;13.95;;;6.38;;
46765;SDS011;32527;51.986;5.842;2024-02-21T03:14:34;18.10;;;6.30;;
46765;SDS011;32527;51.986;5.842;2024-02-21T03:17:01;13.02;;;5.38;;
46765;SDS011;32527;51.986;5.842;2024-02-21T03:19:27;9.50;;;5.95;;
46765;SDS011;32527;51.986;5.842;2024-02-21T03:21:53;11.27;;;5.70;;
46765;SDS011;32527;51.986;5.842;2024-02-21T03:24:20;9.60;;;5.38;;
46765;SDS011;32527;51.986;5.842;2024-02-21T03:26:46;10.40;;;6.07;;
46765;SDS011;32527;51.986;5.842;2024-02-21T03:29:14;12.70;;;6.03;;
46765;SDS011;32527;51.986;5.842;2024-02-21T03:31:40;7.00;;;4.72;;
46765;SDS011;32527;51.986;5.842;2024-02-21T03:34:06;16.05;;;5.38;;
46765;SDS011;32527;51.986;5.842;2024-02-21T03:36:32;18.13;;;6.10;;
46765;SDS011;32527;51.986;5.842;2024-02-21T03:38:58;8.18;;;5.95;;
46765;SDS011;32527;51.986;5.842;2024-02-21T03:41:24;12.55;;;6.15;;
46765;SDS011;32527;51.986;5.842;2024-02-21T03:43:51;8.55;;;5.18;;
46765;SDS011;32527;51.986;5.842;2024-02-21T03:46:17;11.23;;;5.30;;
46765;SDS011;32527;51.986;5.842;2024-02-21T03:48:43;11.23;;;5.50;;
46765;SDS011;32527;51.986;5.842;2024-02-21T03:51:10;10.32;;;5.00;;
46765;SDS011;32527;51.986;5.842;2024-02-21T03:53:36;10.82;;;5.13;;
46765;SDS011;32527;51.986;5.842;2024-02-21T03:56:02;18.48;;;4.65;;
46765;SDS011;32527;51.986;5.842;2024-02-21T03:58:32;11.50;;;5.38;;
46765;SDS011;32527;51.986;5.842;2024-02-21T04:01:01;10.35;;;4.50;;
46765;SDS011;32527;51.986;5.842;2024-02-21T04:03:28;6.78;;;4.35;;
46765;SDS011;32527;51.986;5.842;2024-02-21T04:05:54;13.98;;;4.57;;
46765;SDS011;32527;51.986;5.842;2024-02-21T04:08:20;10.85;;;4.72;;
46765;SDS011;32527;51.986;5.842;2024-02-21T04:10:47;12.63;;;4.45;;
46765;SDS011;32527;51.986;5.842;2024-02-21T04:13:13;13.80;;;5.00;;
46765;SDS011;32527;51.986;5.842;2024-02-21T04:15:39;7.25;;;4.68;;
46765;SDS011;32527;51.986;5.842;2024-02-21T04:18:05;6.07;;;3.50;;
46765;SDS011;32527;51.986;5.842;2024-02-21T04:20:31;8.68;;;5.13;;
46765;SDS011;32527;51.986;5.842;2024-02-21T04:22:57;8.00;;;3.95;;
46765;SDS011;32527;51.986;5.842;2024-02-21T04:25:24;14.70;;;5.60;;
46765;SDS011;32527;51.986;5.842;2024-02-21T04:27:50;11.82;;;4.75;;
46765;SDS011;32527;51.986;5.842;2024-02-21T04:30:17;15.23;;;4.65;;
46765;SDS011;32527;51.986;5.842;2024-02-21T04:32:42;6.97;;;4.57;;
46765;SDS011;32527;51.986;5.842;2024-02-21T04:35:08;6.65;;;3.97;;
46765;SDS011;32527;51.986;5.842;2024-02-21T04:37:35;15.07;;;5.15;;
46765;SDS011;32527;51.986;5.842;2024-02-21T04:40:01;13.75;;;4.43;;
46765;SDS011;32527;51.986;5.842;2024-02-21T04:42:27;7.95;;;3.95;;
46765;SDS011;32527;51.986;5.842;2024-02-21T04:44:53;6.00;;;4.22;;
46765;SDS011;32527;51.986;5.842;2024-02-21T04:47:19;6.47;;;3.97;;
46765;SDS011;32527;51.986;5.842;2024-02-21T04:49:45;7.68;;;4.22;;
46765;SDS011;32527;51.986;5.842;2024-02-21T04:52:12;11.93;;;4.43;;
46765;SDS011;32527;51.986;5.842;2024-02-21T04:54:38;7.38;;;4.05;;
46765;SDS011;32527;51.986;5.842;2024-02-21T04:57:04;5.22;;;3.55;;
46765;SDS011;32527;51.986;5.842;2024-02-21T04:59:30;8.75;;;3.85;;
46765;SDS011;32527;51.986;5.842;2024-02-21T05:01:56;7.55;;;3.20;;
46765;SDS011;32527;51.986;5.842;2024-02-21T05:04:23;6.63;;;3.55;;
46765;SDS011;32527;51.986;5.842;2024-02-21T05:06:50;6.57;;;3.85;;
46765;SDS011;32527;51.986;5.842;2024-02-21T05:09:16;8.25;;;4.28;;
46765;SDS011;32527;51.986;5.842;2024-02-21T05:11:42;7.53;;;3.90;;
46765;SDS011;32527;51.986;5.842;2024-02-21T05:14:08;6.72;;;3.75;;
46765;SDS011;32527;51.986;5.842;2024-02-21T05:16:34;10.18;;;4.32;;
46765;SDS011;32527;51.986;5.842;2024-02-21T05:19:00;8.68;;;4.40;;
46765;SDS011;32527;51.986;5.842;2024-02-21T05:21:26;6.10;;;3.63;;
46765;SDS011;32527;51.986;5.842;2024-02-21T05:23:53;7.43;;;3.67;;
46765;SDS011;32527;51.986;5.842;2024-02-21T05:26:23;9.05;;;4.88;;
46765;SDS011;32527;51.986;5.842;2024-02-21T05:28:50;10.63;;;4.70;;
46765;SDS011;32527;51.986;5.842;2024-02-21T05:31:17;8.32;;;3.83;;
46765;SDS011;32527;51.986;5.842;2024-02-21T05:33:43;7.22;;;4.35;;
46765;SDS011;32527;51.986;5.842;2024-02-21T05:36:09;8.02;;;3.95;;
46765;SDS011;32527;51.986;5.842;2024-02-21T05:38:36;7.07;;;4.30;;
46765;SDS011;32527;51.986;5.842;2024-02-21T05:41:02;13.02;;;4.95;;
46765;SDS011;32527;51.986;5.842;2024-02-21T05:43:28;7.05;;;4.53;;
46765;SDS011;32527;51.986;5.842;2024-02-21T05:45:54;8.65;;;4.88;;
46765;SDS011;32527;51.986;5.842;2024-02-21T05:48:21;9.35;;;5.20;;
46765;SDS011;32527;51.986;5.842;2024-02-21T05:50:47;8.05;;;5.05;;
46765;SDS011;32527;51.986;5.842;2024-02-21T05:53:13;14.00;;;5.95;;
46765;SDS011;32527;51.986;5.842;2024-02-21T05:55:40;15.93;;;5.20;;
46765;SDS011;32527;51.986;5.842;2024-02-21T05:58:06;10.98;;;5.13;;
46765;SDS011;32527;51.986;5.842;2024-02-21T06:00:32;10.00;;;4.53;;
46765;SDS011;32527;51.986;5.842;2024-02-21T06:02:59;17.23;;;5.68;;
46765;SDS011;32527;51.986;5.842;2024-02-21T06:05:25;8.27;;;4.80;;
46765;SDS011;32527;51.986;5.842;2024-02-21T06:07:52;16.83;;;5.00;;
46765;SDS011;32527;51.986;5.842;2024-02-21T06:10:18;10.88;;;6.68;;
46765;SDS011;32527;51.986;5.842;2024-02-21T06:12:44;6.45;;;4.50;;
46765;SDS011;32527;51.986;5.842;2024-02-21T06:15:11;12.15;;;5.22;;
46765;SDS011;32527;51.986;5.842;2024-02-21T06:17:37;9.55;;;5.72;;
46765;SDS011;32527;51.986;5.842;2024-02-21T06:20:03;9.23;;;5.70;;
46765;SDS011;32527;51.986;5.842;2024-02-21T06:22:30;11.25;;;5.15;;
46765;SDS011;32527;51.986;5.842;2024-02-21T06:24:55;10.23;;;5.18;;
46765;SDS011;32527;51.986;5.842;2024-02-21T06:27:21;12.15;;;5.88;;
46765;SDS011;32527;51.986;5.842;2024-02-21T06:29:49;11.38;;;5.03;;
46765;SDS011;32527;51.986;5.842;2024-02-21T06:32:15;16.52;;;5.78;;
46765;SDS011;32527;51.986;5.842;2024-02-21T06:34:41;13.95;;;4.88;;
46765;SDS011;32527;51.986;5.842;2024-02-21T06:37:07;7.05;;;4.43;;
46765;SDS011;32527;51.986;5.842;2024-02-21T06:39:34;10.40;;;4.35;;
46765;SDS011;32527;51.986;5.842;2024-02-21T06:42:02;13.45;;;4.18;;
46765;SDS011;32527;51.986;5.842;2024-02-21T06:44:28;9.80;;;5.07;;
46765;SDS011;32527;51.986;5.842;2024-02-21T06:46:54;8.73;;;4.22;;
46765;SDS011;32527;51.986;5.842;2024-02-21T06:49:20;14.20;;;5.05;;
46765;SDS011;32527;51.986;5.842;2024-02-21T06:51:46;11.02;;;4.72;;
46765;SDS011;32527;51.986;5.842;2024-02-21T06:54:12;5.78;;;3.63;;
46765;SDS011;32527;51.986;5.842;2024-02-21T06:56:39;6.57;;;4.05;;
46765;SDS011;32527;51.986;5.842;2024-02-21T06:59:05;7.63;;;4.63;;
46765;SDS011;32527;51.986;5.842;2024-02-21T07:01:31;9.98;;;3.88;;
46765;SDS011;32527;51.986;5.842;2024-02-21T07:03:57;12.50;;;3.90;;
46765;SDS011;32527;51.986;5.842;2024-02-21T07:06:23;10.00;;;4.93;;
46765;SDS011;32527;51.986;5.842;2024-02-21T07:08:49;8.15;;;3.65;;
46765;SDS011;32527;51.986;5.842;2024-02-21T07:11:16;12.13;;;5.25;;
46765;SDS011;32527;51.986;5.842;2024-02-21T07:13:45;14.73;;;4.03;;
46765;SDS011;32527;51.986;5.842;2024-02-21T07:16:51;17.65;;;4.68;;
46765;SDS011;32527;51.986;5.842;2024-02-21T07:19:18;9.88;;;3.95;;
46765;SDS011;32527;51.986;5.842;2024-02-21T07:25:21;9.73;;;4.45;;
46765;SDS011;32527;51.986;5.842;2024-02-21T07:28:13;11.23;;;3.63;;
46765;SDS011;32527;51.986;5.842;2024-02-21T07:30:44;7.97;;;4.15;;
46765;SDS011;32527;51.986;5.842;2024-02-21T07:37:51;10.95;;;4.88;;
46765;SDS011;32527;51.986;5.842;2024-02-21T07:40:19;6.03;;;4.47;;
46765;SDS011;32527;51.986;5.842;2024-02-21T07:42:51;17.25;;;4.97;;
46765;SDS011;32527;51.986;5.842;2024-02-21T07:45:38;11.07;;;4.30;;
46765;SDS011;32527;51.986;5.842;2024-02-21T07:48:54;12.13;;;4.28;;
46765;SDS011;32527;51.986;5.842;2024-02-21T07:52:00;12.82;;;3.95;;
46765;SDS011;32527;51.986;5.842;2024-02-21T07:54:35;7.10;;;4.20;;
46765;SDS011;32527;51.986;5.842;2024-02-21T07:57:16;8.25;;;4.32;;
46765;SDS011;32527;51.986;5.842;2024-02-21T08:00:22;5.63;;;4.05;;
46765;SDS011;32527;51.986;5.842;2024-02-21T08:03:26;11.32;;;4.93;;
46765;SDS011;32527;51.986;5.842;2024-02-21T08:06:55;13.13;;;4.00;;
46765;SDS011;32527;51.986;5.842;2024-02-21T08:09:46;7.53;;;4.20;;
46765;SDS011;32527;51.986;5.842;2024-02-21T08:12:53;9.73;;;4.40;;
46765;SDS011;32527;51.986;5.842;2024-02-21T08:15:55;22.92;;;4.57;;
46765;SDS011;32527;51.986;5.842;2024-02-21T08:38:26;9.90;;;3.97;;
46765;SDS011;32527;51.986;5.842;2024-02-21T08:40:52;15.07;;;4.82;;
46765;SDS011;32527;51.986;5.842;2024-02-21T08:43:18;10.85;;;5.20;;
46765;SDS011;32527;51.986;5.842;2024-02-21T08:45:44;12.95;;;4.03;;
46765;SDS011;32527;51.986;5.842;2024-02-21T08:48:10;12.18;;;4.90;;
46765;SDS011;32527;51.986;5.842;2024-02-21T08:50:36;14.65;;;5.40;;
46765;SDS011;32527;51.986;5.842;2024-02-21T08:53:03;19.88;;;6.35;;
46765;SDS011;32527;51.986;5.842;2024-02-21T08:55:29;13.65;;;4.20;;
46765;SDS011;32527;51.986;5.842;2024-02-21T08:57:55;10.40;;;5.25;;
46765;SDS011;32527;51.986;5.842;2024-02-21T09:00:21;9.18;;;4.10;;
46765;SDS011;32527;51.986;5.842;2024-02-21T09:02:52;8.35;;;3.83;;
46765;SDS011;32527;51.986;5.842;2024-02-21T09:05:20;13.65;;;3.88;;
46765;SDS011;32527;51.986;5.842;2024-02-21T09:07:46;6.50;;;3.95;;
46765;SDS011;32527;51.986;5.842;2024-02-21T09:10:13;6.18;;;4.03;;
46765;SDS011;32527;51.986;5.842;2024-02-21T09:12:39;7.38;;;4.35;;
46765;SDS011;32527;51.986;5.842;2024-02-21T09:15:05;10.45;;;4.60;;
46765;SDS011;32527;51.986;5.842;2024-02-21T09:17:31;8.50;;;4.95;;
46765;SDS011;32527;51.986;5.842;2024-02-21T09:19:57;11.57;;;3.90;;
46765;SDS011;32527;51.986;5.842;2024-02-21T09:22:24;12.70;;;3.83;;
46765;SDS011;32527;51.986;5.842;2024-02-21T09:24:50;9.48;;;4.60;;
46765;SDS011;32527;51.986;5.842;2024-02-21T09:27:16;10.68;;;4.13;;
46765;SDS011;32527;51.986;5.842;2024-02-21T09:29:42;5.60;;;3.80;;
46765;SDS011;32527;51.986;5.842;2024-02-21T09:32:09;10.95;;;4.15;;
46765;SDS011;32527;51.986;5.842;2024-02-21T09:34:35;8.02;;;4.78;;
46765;SDS011;32527;51.986;5.842;2024-02-21T09:37:01;9.40;;;5.32;;
46765;SDS011;32527;51.986;5.842;2024-02-21T09:39:27;6.38;;;4.10;;
46765;SDS011;32527;51.986;5.842;2024-02-21T09:41:53;8.45;;;3.75;;
46765;SDS011;32527;51.986;5.842;2024-02-21T09:44:24;4.25;;;3.20;;
46765;SDS011;32527;51.986;5.842;2024-02-21T09:47:09;8.40;;;4.05;;
46765;SDS011;32527;51.986;5.842;2024-02-21T09:49:38;11.27;;;3.30;;
46765;SDS011;32527;51.986;5.842;2024-02-21T09:52:06;5.43;;;3.00;;
46765;SDS011;32527;51.986;5.842;2024-02-21T09:54:35;8.80;;;3.70;;
46765;SDS011;32527;51.986;5.842;2024-02-21T09:57:02;5.65;;;3.25;;
46765;SDS011;32527;51.986;5.842;2024-02-21T09:59:28;5.85;;;3.38;;
46765;SDS011;32527;51.986;5.842;2024-02-21T10:01:56;10.55;;;4.18;;
46765;SDS011;32527;51.986;5.842;2024-02-21T10:04:25;7.65;;;3.95;;
46765;SDS011;32527;51.986;5.842;2024-02-21T10:06:51;11.88;;;3.97;;
46765;SDS011;32527;51.986;5.842;2024-02-21T10:09:21;7.10;;;3.60;;
46765;SDS011;32527;51.986;5.842;2024-02-21T10:11:48;5.38;;;3.25;;
46765;SDS011;32527;51.986;5.842;2024-02-21T10:14:15;5.05;;;3.38;;
46765;SDS011;32527;51.986;5.842;2024-02-21T10:16:42;4.78;;;3.10;;
46765;SDS011;32527;51.986;5.842;2024-02-21T10:19:16;5.38;;;3.05;;
46765;SDS011;32527;51.986;5.842;2024-02-21T10:21:58;7.93;;;3.72;;
46765;SDS011;32527;51.986;5.842;2024-02-21T10:24:32;5.57;;;3.53;;
46765;SDS011;32527;51.986;5.842;2024-02-21T10:26:59;13.43;;;3.45;;
46765;SDS011;32527;51.986;5.842;2024-02-21T10:29:31;4.22;;;2.88;;
46765;SDS011;32527;51.986;5.842;2024-02-21T10:32:04;5.15;;;3.40;;
46765;SDS011;32527;51.986;5.842;2024-02-21T10:34:33;7.05;;;2.75;;
46765;SDS011;32527;51.986;5.842;2024-02-21T10:37:03;7.68;;;3.65;;
46765;SDS011;32527;51.986;5.842;2024-02-21T10:39:31;4.25;;;2.53;;
46765;SDS011;32527;51.986;5.842;2024-02-21T10:41:59;5.45;;;2.22;;
46765;SDS011;32527;51.986;5.842;2024-02-21T10:44:29;3.92;;;2.70;;
46765;SDS011;32527;51.986;5.842;2024-02-21T10:46:58;6.53;;;3.20;;
46765;SDS011;32527;51.986;5.842;2024-02-21T10:49:25;4.60;;;2.72;;
46765;SDS011;32527;51.986;5.842;2024-02-21T10:57:12;3.42;;;2.58;;
46765;SDS011;32527;51.986;5.842;2024-02-21T10:59:42;4.10;;;2.45;;
46765;SDS011;32527;51.986;5.842;2024-02-21T11:02:09;6.40;;;3.42;;
46765;SDS011;32527;51.986;5.842;2024-02-21T11:04:35;3.67;;;2.90;;
46765;SDS011;32527;51.986;5.842;2024-02-21T11:07:03;6.47;;;3.83;;
46765;SDS011;32527;51.986;5.842;2024-02-21T11:09:30;4.97;;;3.42;;
46765;SDS011;32527;51.986;5.842;2024-02-21T11:12:03;5.38;;;3.83;;
46765;SDS011;32527;51.986;5.842;2024-02-21T11:14:29;7.40;;;3.67;;
46765;SDS011;32527;51.986;5.842;2024-02-21T11:17:13;3.33;;;2.58;;
46765;SDS011;32527;51.986;5.842;2024-02-21T11:19:40;10.18;;;3.20;;
46765;SDS011;32527;51.986;5.842;2024-02-21T11:22:06;7.35;;;2.88;;
46765;SDS011;32527;51.986;5.842;2024-02-21T11:24:41;7.25;;;4.32;;
46765;SDS011;32527;51.986;5.842;2024-02-21T11:27:08;10.48;;;3.80;;
46765;SDS011;32527;51.986;5.842;2024-02-21T11:29:48;7.20;;;3.95;;
46765;SDS011;32527;51.986;5.842;2024-02-21T11:32:19;9.05;;;3.78;;
46765;SDS011;32527;51.986;5.842;2024-02-21T11:34:55;6.85;;;3.20;;
46765;SDS011;32527;51.986;5.842;2024-02-21T11:37:23;5.63;;;3.60;;
46765;SDS011;32527;51.986;5.842;2024-02-21T11:39:51;8.90;;;4.50;;
46765;SDS011;32527;51.986;5.842;2024-02-21T11:42:18;4.10;;;3.42;;
46765;SDS011;32527;51.986;5.842;2024-02-21T11:44:45;13.38;;;4.18;;
46765;SDS011;32527;51.986;5.842;2024-02-21T11:47:11;7.43;;;3.63;;
46765;SDS011;32527;51.986;5.842;2024-02-21T11:49:37;5.32;;;3.05;;
46765;SDS011;32527;51.986;5.842;2024-02-21T11:52:07;6.45;;;4.05;;
46765;SDS011;32527;51.986;5.842;2024-02-21T11:54:33;5.45;;;3.03;;
46765;SDS011;32527;51.986;5.842;2024-02-21T11:56:59;7.38;;;4.30;;
46765;SDS011;32527;51.986;5.842;2024-02-21T11:59:26;4.63;;;2.88;;
46765;SDS011;32527;51.986;5.842;2024-02-21T12:01:52;12.43;;;3.83;;
46765;SDS011;32527;51.986;5.842;2024-02-21T12:04:18;4.82;;;3.58;;
46765;SDS011;32527;51.986;5.842;2024-02-21T12:06:45;5.60;;;3.15;;
46765;SDS011;32527;51.986;5.842;2024-02-21T12:09:15;6.00;;;3.78;;
46765;SDS011;32527;51.986;5.842;2024-02-21T12:11:43;4.32;;;3.20;;
46765;SDS011;32527;51.986;5.842;2024-02-21T12:14:10;5.85;;;3.40;;
46765;SDS011;32527;51.986;5.842;2024-02-21T12:16:36;8.65;;;3.65;;
46765;SDS011;32527;51.986;5.842;2024-02-21T12:19:02;4.15;;;2.53;;
46765;SDS011;32527;51.986;5.842;2024-02-21T12:21:32;4.78;;;2.95;;
46765;SDS011;32527;51.986;5.842;2024-02-21T12:26:46;11.15;;;2.78;;
46765;SDS011;32527;51.986;5.842;2024-02-21T12:29:12;2.78;;;2.22;;
46765;SDS011;32527;51.986;5.842;2024-02-21T12:31:38;6.65;;;3.13;;
46765;SDS011;32527;51.986;5.842;2024-02-21T12:34:04;6.22;;;2.58;;
46765;SDS011;32527;51.986;5.842;2024-02-21T12:36:33;7.30;;;3.55;;
46765;SDS011;32527;51.986;5.842;2024-02-21T12:39:00;6.90;;;3.65;;
46765;SDS011;32527;51.986;5.842;2024-02-21T12:41:28;7.20;;;2.78;;
46765;SDS011;32527;51.986;5.842;2024-02-21T12:43:55;5.88;;;2.70;;
46765;SDS011;32527;51.986;5.842;2024-02-21T12:46:21;4.43;;;3.30;;
46765;SDS011;32527;51.986;5.842;2024-02-21T12:48:47;4.63;;;2.75;;
46765;SDS011;32527;51.986;5.842;2024-02-21T12:51:14;4.15;;;3.13;;
46765;SDS011;32527;51.986;5.842;2024-02-21T12:53:40;5.68;;;2.60;;
46765;SDS011;32527;51.986;5.842;2024-02-21T12:56:06;5.47;;;2.92;;
46765;SDS011;32527;51.986;5.842;2024-02-21T12:58:33;7.55;;;2.88;;
46765;SDS011;32527;51.986;5.842;2024-02-21T13:00:59;4.20;;;2.85;;
46765;SDS011;32527;51.986;5.842;2024-02-21T13:03:25;5.32;;;2.40;;
46765;SDS011;32527;51.986;5.842;2024-02-21T13:05:51;25.65;;;3.67;;
46765;SDS011;32527;51.986;5.842;2024-02-21T13:08:17;4.65;;;3.40;;
46765;SDS011;32527;51.986;5.842;2024-02-21T13:10:47;4.97;;;2.67;;
46765;SDS011;32527;51.986;5.842;2024-02-21T13:13:14;9.18;;;2.90;;
46765;SDS011;32527;51.986;5.842;2024-02-21T13:15:40;9.15;;;3.70;;
46765;SDS011;32527;51.986;5.842;2024-02-21T13:18:08;5.45;;;2.92;;
46765;SDS011;32527;51.986;5.842;2024-02-21T13:20:34;2.75;;;1.92;;
46765;SDS011;32527;51.986;5.842;2024-02-21T13:23:00;4.22;;;2.80;;
46765;SDS011;32527;51.986;5.842;2024-02-21T13:25:26;5.55;;;3.17;;
46765;SDS011;32527;51.986;5.842;2024-02-21T13:27:52;7.82;;;2.70;;
46765;SDS011;32527;51.986;5.842;2024-02-21T13:30:18;3.03;;;2.28;;
46765;SDS011;32527;51.986;5.842;2024-02-21T13:32:44;5.40;;;2.80;;
46765;SDS011;32527;51.986;5.842;2024-02-21T13:35:13;4.15;;;2.13;;
46765;SDS011;32527;51.986;5.842;2024-02-21T13:37:40;4.43;;;2.20;;
46765;SDS011;32527;51.986;5.842;2024-02-21T13:40:06;3.00;;;2.25;;
46765;SDS011;32527;51.986;5.842;2024-02-21T13:42:36;8.98;;;3.00;;
46765;SDS011;32527;51.986;5.842;2024-02-21T13:45:03;5.13;;;2.88;;
46765;SDS011;32527;51.986;5.842;2024-02-21T13:47:30;4.38;;;2.53;;
46765;SDS011;32527;51.986;5.842;2024-02-21T13:49:56;4.03;;;2.50;;
46765;SDS011;32527;51.986;5.842;2024-02-21T13:52:22;2.53;;;2.10;;
46765;SDS011;32527;51.986;5.842;2024-02-21T13:54:51;6.55;;;2.72;;
46765;SDS011;32527;51.986;5.842;2024-02-21T13:57:17;4.47;;;2.85;;
46765;SDS011;32527;51.986;5.842;2024-02-21T13:59:43;15.52;;;2.83;;
46765;SDS011;32527;51.986;5.842;2024-02-21T14:02:09;4.50;;;2.28;;
46765;SDS011;32527;51.986;5.842;2024-02-21T14:04:35;5.88;;;1.90;;
46765;SDS011;32527;51.986;5.842;2024-02-21T14:07:02;8.18;;;2.72;;
46765;SDS011;32527;51.986;5.842;2024-02-21T14:09:28;6.18;;;2.58;;
46765;SDS011;32527;51.986;5.842;2024-02-21T14:12:00;13.90;;;3.42;;
46765;SDS011;32527;51.986;5.842;2024-02-21T14:14:26;3.67;;;2.42;;
46765;SDS011;32527;51.986;5.842;2024-02-21T14:16:52;3.63;;;2.35;;
46765;SDS011;32527;51.986;5.842;2024-02-21T14:19:18;3.80;;;2.17;;
46765;SDS011;32527;51.986;5.842;2024-02-21T14:21:44;5.07;;;2.30;;
46765;SDS011;32527;51.986;5.842;2024-02-21T14:24:10;3.45;;;2.38;;
46765;SDS011;32527;51.986;5.842;2024-02-21T14:26:37;5.07;;;2.50;;
46765;SDS011;32527;51.986;5.842;2024-02-21T14:29:06;7.75;;;2.25;;
46765;SDS011;32527;51.986;5.842;2024-02-21T14:31:32;9.38;;;2.28;;
46765;SDS011;32527;51.986;5.842;2024-02-21T14:33:58;7.03;;;2.30;;
46765;SDS011;32527;51.986;5.842;2024-02-21T14:36:25;8.50;;;2.65;;
46765;SDS011;32527;51.986;5.842;2024-02-21T14:38:51;6.20;;;2.50;;
46765;SDS011;32527;51.986;5.842;2024-02-21T14:41:18;3.25;;;1.80;;
46765;SDS011;32527;51.986;5.842;2024-02-21T14:43:44;5.07;;;2.78;;
46765;SDS011;32527;51.986;5.842;2024-02-21T14:46:11;3.10;;;2.40;;
46765;SDS011;32527;51.986;5.842;2024-02-21T14:48:37;2.83;;;1.65;;
46765;SDS011;32527;51.986;5.842;2024-02-21T14:51:03;6.72;;;2.85;;
46765;SDS011;32527;51.986;5.842;2024-02-21T14:53:30;2.75;;;2.03;;
46765;SDS011;32527;51.986;5.842;2024-02-21T14:55:56;8.52;;;2.53;;
46765;SDS011;32527;51.986;5.842;2024-02-21T14:58:25;5.15;;;1.65;;
46765;SDS011;32527;51.986;5.842;2024-02-21T15:00:52;2.45;;;2.03;;
46765;SDS011;32527;51.986;5.842;2024-02-21T15:03:19;3.30;;;1.83;;
46765;SDS011;32527;51.986;5.842;2024-02-21T15:05:45;2.33;;;1.98;;
46765;SDS011;32527;51.986;5.842;2024-02-21T15:08:12;4.13;;;2.10;;
46765;SDS011;32527;51.986;5.842;2024-02-21T15:10:41;2.53;;;1.58;;
46765;SDS011;32527;51.986;5.842;2024-02-21T15:13:08;1.60;;;1.50;;
46765;SDS011;32527;51.986;5.842;2024-02-21T15:15:36;3.17;;;2.53;;
46765;SDS011;32527;51.986;5.842;2024-02-21T15:18:02;2.40;;;1.70;;
46765;SDS011;32527;51.986;5.842;2024-02-21T15:20:29;4.15;;;2.45;;
46765;SDS011;32527;51.986;5.842;2024-02-21T15:22:55;4.20;;;2.60;;
46765;SDS011;32527;51.986;5.842;2024-02-21T15:25:22;3.90;;;2.15;;